Terminal Aerodrome Forecast
Issued by NWS Austin/San Antonio, TX

Home | Current Version | Previous Version | Text Only | Print | Product List | Glossary On
Versions: 1 2 3 4 5 6 7 8 9 10 11 12
000
FTUS44 KEWX 061730
TAFAUS
TAF
KAUS 061730Z 0618/0724 12006KT P6SM SCT250
     FM070600 18004KT P6SM BKN250
     FM071600 17012G22KT P6SM BKN250=

USA.gov is the U.S. government's official web portal to all federal, state and local government web resources and services.